QFA12 YSSY-YMML
Flight info
| Callsign | QFA12 |
|---|---|
| Flight time | 1h 8m |
| Altitude | 35000 |
| Route | GROOK1/16R WOL H65 LEECE Q29 ML DCT |
| Aircraft | A332/H-SDE3GHIJ2J3J5M1RVWXY/LB2D1 |
Departure
| Time | 2026-05-06 06:31 |
|---|---|
| Airport | Sydney Kingsford Smith International Airport (YSSY) |
Arrival
| Time | 2026-05-06 07:40 |
|---|---|
| Airport | Melbourne Airport (YMML) |
| Time | Latitude | Longitude | Altitude | Speed | Heading |
|---|---|---|---|---|---|
| 2026-05-06 06:14 | -33.93794 | 151.16958 | 28 ft | 0 kts | 255° |
| 2026-05-06 06:22 | -33.93792 | 151.16964 | 25 ft | 3 kts | 255° |
| 2026-05-06 06:23 | -33.93787 | 151.16986 | 26 ft | 3 kts | 259° |
| 2026-05-06 06:23 | -33.93789 | 151.17010 | 29 ft | 3 kts | 313° |
| 2026-05-06 06:23 | -33.93799 | 151.17021 | 30 ft | 0 kts | 352° |
| 2026-05-06 06:24 | -33.93797 | 151.17020 | 30 ft | 0 kts | 351° |
| 2026-05-06 06:25 | -33.93774 | 151.17029 | 29 ft | 7 kts | 23° |
| 2026-05-06 06:26 | -33.93725 | 151.17072 | 28 ft | 7 kts | 58° |
| 2026-05-06 06:26 | -33.93692 | 151.17123 | 27 ft | 7 kts | 40° |
| 2026-05-06 06:26 | -33.93662 | 151.17140 | 29 ft | 7 kts | 20° |
| 2026-05-06 06:26 | -33.93637 | 151.17140 | 27 ft | 3 kts | 347° |
| 2026-05-06 06:27 | -33.93610 | 151.17132 | 27 ft | 5 kts | 346° |
| 2026-05-06 06:27 | -33.93541 | 151.17113 | 29 ft | 13 kts | 348° |
| 2026-05-06 06:27 | -33.93420 | 151.17081 | 27 ft | 20 kts | 348° |
| 2026-05-06 06:27 | -33.93300 | 151.17014 | 28 ft | 17 kts | 318° |
| 2026-05-06 06:28 | -33.93244 | 151.16965 | 27 ft | 12 kts | 341° |
| 2026-05-06 06:28 | -33.93173 | 151.16953 | 27 ft | 10 kts | 352° |
| 2026-05-06 06:28 | -33.93100 | 151.16937 | 27 ft | 12 kts | 349° |
| 2026-05-06 06:28 | -33.93019 | 151.16925 | 27 ft | 12 kts | 20° |
| 2026-05-06 06:29 | -33.92980 | 151.16979 | 24 ft | 8 kts | 71° |
| 2026-05-06 06:29 | -33.92973 | 151.17009 | 26 ft | 0 kts | 76° |
| 2026-05-06 06:29 | -33.92971 | 151.17020 | 26 ft | 6 kts | 76° |
| 2026-05-06 06:29 | -33.92972 | 151.17127 | 26 ft | 19 kts | 114° |
| 2026-05-06 06:30 | -33.93054 | 151.17189 | 24 ft | 13 kts | 167° |
| 2026-05-06 06:30 | -33.93154 | 151.17217 | 28 ft | 15 kts | 167° |
| 2026-05-06 06:30 | -33.93239 | 151.17240 | 28 ft | 0 kts | 168° |
| 2026-05-06 06:30 | -33.93245 | 151.17241 | 30 ft | 6 kts | 168° |
| 2026-05-06 06:31 | -33.93498 | 151.17305 | 19 ft | 72 kts | 167° |
| 2026-05-06 06:31 | -33.94204 | 151.17490 | 28 ft | 133 kts | 167° |
| 2026-05-06 06:31 | -33.95281 | 151.17782 | 109 ft | 180 kts | 166° |
| 2026-05-06 06:31 | -33.96496 | 151.18092 | 1007 ft | 174 kts | 169° |
| 2026-05-06 06:32 | -33.97768 | 151.18153 | 1545 ft | 196 kts | 182° |
| 2026-05-06 06:32 | -33.99192 | 151.17942 | 1956 ft | 221 kts | 190° |
| 2026-05-06 06:32 | -34.00796 | 151.17630 | 2347 ft | 245 kts | 187° |
| 2026-05-06 06:32 | -34.02564 | 151.17535 | 2831 ft | 262 kts | 175° |
| 2026-05-06 06:33 | -34.04376 | 151.17993 | 3602 ft | 268 kts | 166° |
| 2026-05-06 06:33 | -34.06163 | 151.18598 | 4470 ft | 271 kts | 165° |
| 2026-05-06 06:33 | -34.07994 | 151.19233 | 5371 ft | 274 kts | 166° |
| 2026-05-06 06:33 | -34.09844 | 151.19872 | 6283 ft | 277 kts | 166° |
| 2026-05-06 06:34 | -34.11694 | 151.20509 | 7148 ft | 281 kts | 166° |
| 2026-05-06 06:34 | -34.13593 | 151.21159 | 8024 ft | 285 kts | 166° |
| 2026-05-06 06:34 | -34.15462 | 151.21792 | 8837 ft | 291 kts | 166° |
| 2026-05-06 06:34 | -34.16310 | 151.22069 | 9241 ft | 292 kts | 167° |
| 2026-05-06 06:35 | -34.18299 | 151.22435 | 10091 ft | 294 kts | 182° |
| 2026-05-06 06:35 | -34.20341 | 151.21995 | 10613 ft | 304 kts | 205° |
| 2026-05-06 06:35 | -34.22105 | 151.20562 | 11211 ft | 309 kts | 227° |
| 2026-05-06 06:35 | -34.23565 | 151.18644 | 11990 ft | 311 kts | 232° |
| 2026-05-06 06:36 | -34.24955 | 151.16662 | 12814 ft | 314 kts | 233° |
| 2026-05-06 06:36 | -34.26375 | 151.14629 | 13650 ft | 316 kts | 233° |
| 2026-05-06 06:36 | -34.27805 | 151.12589 | 14401 ft | 319 kts | 233° |
| 2026-05-06 06:36 | -34.29255 | 151.10529 | 15114 ft | 323 kts | 232° |
| 2026-05-06 06:37 | -34.30825 | 151.08496 | 15543 ft | 338 kts | 229° |
| 2026-05-06 06:37 | -34.32505 | 151.06470 | 16012 ft | 349 kts | 227° |
| 2026-05-06 06:37 | -34.34260 | 151.04394 | 16674 ft | 354 kts | 227° |
| 2026-05-06 06:37 | -34.36042 | 151.02300 | 17351 ft | 358 kts | 227° |
| 2026-05-06 06:38 | -34.37824 | 151.00212 | 18046 ft | 362 kts | 227° |
| 2026-05-06 06:38 | -34.39642 | 150.98083 | 18681 ft | 365 kts | 227° |
| 2026-05-06 06:38 | -34.41480 | 150.95932 | 19292 ft | 368 kts | 227° |
| 2026-05-06 06:38 | -34.43332 | 150.93761 | 19898 ft | 371 kts | 227° |
| 2026-05-06 06:39 | -34.45199 | 150.91574 | 20498 ft | 374 kts | 227° |
| 2026-05-06 06:39 | -34.47063 | 150.89388 | 21072 ft | 377 kts | 227° |
| 2026-05-06 06:39 | -34.48955 | 150.87168 | 21660 ft | 379 kts | 227° |
| 2026-05-06 06:39 | -34.50868 | 150.84921 | 22250 ft | 382 kts | 227° |
| 2026-05-06 06:40 | -34.52765 | 150.82693 | 22817 ft | 385 kts | 227° |
| 2026-05-06 06:40 | -34.54687 | 150.80422 | 23381 ft | 387 kts | 229° |
| 2026-05-06 06:40 | -34.56481 | 150.77985 | 23871 ft | 388 kts | 234° |
| 2026-05-06 06:40 | -34.58165 | 150.75390 | 24288 ft | 391 kts | 236° |
| 2026-05-06 06:41 | -34.59771 | 150.72759 | 24692 ft | 394 kts | 237° |
| 2026-05-06 06:41 | -34.61386 | 150.70038 | 25104 ft | 397 kts | 237° |
| 2026-05-06 06:41 | -34.63006 | 150.67288 | 25523 ft | 400 kts | 237° |
| 2026-05-06 06:41 | -34.64637 | 150.64525 | 25939 ft | 403 kts | 237° |
| 2026-05-06 06:42 | -34.66263 | 150.61787 | 26351 ft | 406 kts | 237° |
| 2026-05-06 06:42 | -34.67933 | 150.58988 | 26770 ft | 409 kts | 237° |
| 2026-05-06 06:42 | -34.69621 | 150.56170 | 27151 ft | 413 kts | 237° |
| 2026-05-06 06:42 | -34.71317 | 150.53342 | 27576 ft | 415 kts | 237° |
| 2026-05-06 06:43 | -34.73016 | 150.50511 | 27963 ft | 418 kts | 237° |
| 2026-05-06 06:43 | -34.74740 | 150.47637 | 28348 ft | 421 kts | 237° |
| 2026-05-06 06:43 | -34.76477 | 150.44738 | 28739 ft | 424 kts | 237° |
| 2026-05-06 06:43 | -34.78226 | 150.41817 | 29130 ft | 427 kts | 237° |
| 2026-05-06 06:44 | -34.79962 | 150.38914 | 29500 ft | 430 kts | 237° |
| 2026-05-06 06:44 | -34.81734 | 150.35948 | 29898 ft | 433 kts | 237° |
| 2026-05-06 06:44 | -34.83508 | 150.32974 | 30245 ft | 436 kts | 237° |
| 2026-05-06 06:44 | -34.85284 | 150.29996 | 30557 ft | 439 kts | 237° |
| 2026-05-06 06:45 | -34.87082 | 150.26976 | 30935 ft | 440 kts | 237° |
| 2026-05-06 06:45 | -34.88888 | 150.23942 | 31273 ft | 442 kts | 237° |
| 2026-05-06 06:45 | -34.90703 | 150.20889 | 31603 ft | 444 kts | 238° |
| 2026-05-06 06:45 | -34.92499 | 150.17867 | 31936 ft | 446 kts | 238° |
| 2026-05-06 06:46 | -34.94320 | 150.14799 | 32289 ft | 447 kts | 238° |
| 2026-05-06 06:46 | -34.96146 | 150.11723 | 32736 ft | 446 kts | 238° |
| 2026-05-06 06:46 | -34.97964 | 150.08657 | 33211 ft | 445 kts | 238° |
| 2026-05-06 06:46 | -34.99778 | 150.05595 | 33625 ft | 445 kts | 238° |
| 2026-05-06 06:47 | -35.01570 | 150.02565 | 33986 ft | 445 kts | 238° |
| 2026-05-06 06:47 | -35.03370 | 149.99525 | 34055 ft | 434 kts | 238° |
| 2026-05-06 06:47 | -35.05115 | 149.96582 | 34054 ft | 421 kts | 238° |
| 2026-05-06 06:48 | -35.08497 | 149.90855 | 34062 ft | 415 kts | 239° |
| 2026-05-06 06:48 | -35.11849 | 149.85149 | 34061 ft | 415 kts | 239° |
| 2026-05-06 06:49 | -35.15226 | 149.79399 | 34067 ft | 415 kts | 239° |
| 2026-05-06 06:49 | -35.18577 | 149.73689 | 34064 ft | 416 kts | 239° |
| 2026-05-06 06:50 | -35.21953 | 149.67930 | 34072 ft | 416 kts | 239° |
| 2026-05-06 06:50 | -35.25306 | 149.62202 | 34071 ft | 416 kts | 239° |
| 2026-05-06 06:51 | -35.28686 | 149.56417 | 34080 ft | 415 kts | 239° |
| 2026-05-06 06:51 | -35.32031 | 149.50684 | 34083 ft | 415 kts | 239° |
| 2026-05-06 06:52 | -35.35373 | 149.44944 | 34090 ft | 415 kts | 239° |
| 2026-05-06 06:52 | -35.38730 | 149.39170 | 34092 ft | 415 kts | 239° |
| 2026-05-06 06:53 | -35.42081 | 149.33397 | 34110 ft | 415 kts | 239° |
| 2026-05-06 06:53 | -35.45417 | 149.27639 | 34098 ft | 416 kts | 239° |
| 2026-05-06 06:54 | -35.48772 | 149.21840 | 34084 ft | 416 kts | 239° |
| 2026-05-06 06:54 | -35.52124 | 149.16036 | 34082 ft | 416 kts | 240° |
| 2026-05-06 06:55 | -35.55450 | 149.10268 | 34074 ft | 416 kts | 240° |
| 2026-05-06 06:55 | -35.58800 | 149.04449 | 34069 ft | 416 kts | 240° |
| 2026-05-06 06:56 | -35.62120 | 148.98671 | 34057 ft | 415 kts | 240° |
| 2026-05-06 06:56 | -35.65451 | 148.92866 | 34059 ft | 414 kts | 240° |
| 2026-05-06 06:57 | -35.68764 | 148.87082 | 34059 ft | 415 kts | 240° |
| 2026-05-06 06:57 | -35.72087 | 148.81272 | 34065 ft | 414 kts | 240° |
| 2026-05-06 06:58 | -35.75391 | 148.75484 | 34066 ft | 415 kts | 240° |
| 2026-05-06 06:58 | -35.78701 | 148.69675 | 34077 ft | 413 kts | 240° |
| 2026-05-06 06:59 | -35.81996 | 148.63886 | 34075 ft | 412 kts | 240° |
| 2026-05-06 06:59 | -35.85276 | 148.58111 | 34117 ft | 412 kts | 241° |
| 2026-05-06 07:00 | -35.88565 | 148.52309 | 34087 ft | 412 kts | 241° |
| 2026-05-06 07:00 | -35.91823 | 148.46535 | 34091 ft | 411 kts | 241° |
| 2026-05-06 07:01 | -35.95089 | 148.40730 | 34091 ft | 411 kts | 241° |
| 2026-05-06 07:01 | -35.98359 | 148.34912 | 34107 ft | 411 kts | 241° |
| 2026-05-06 07:02 | -36.01593 | 148.29145 | 34099 ft | 411 kts | 241° |
| 2026-05-06 07:02 | -36.04852 | 148.23327 | 34111 ft | 411 kts | 241° |
| 2026-05-06 07:03 | -36.08092 | 148.17534 | 34113 ft | 411 kts | 241° |
| 2026-05-06 07:03 | -36.11350 | 148.11697 | 34124 ft | 411 kts | 241° |
| 2026-05-06 07:04 | -36.14603 | 148.05875 | 34122 ft | 411 kts | 241° |
| 2026-05-06 07:04 | -36.17841 | 148.00082 | 34122 ft | 411 kts | 241° |
| 2026-05-06 07:05 | -36.21101 | 147.94242 | 34122 ft | 411 kts | 241° |
| 2026-05-06 07:05 | -36.24330 | 147.88446 | 34124 ft | 409 kts | 241° |
| 2026-05-06 07:06 | -36.27564 | 147.82631 | 34125 ft | 409 kts | 241° |
| 2026-05-06 07:06 | -36.30794 | 147.76812 | 34128 ft | 409 kts | 242° |
| 2026-05-06 07:07 | -36.33999 | 147.71025 | 34128 ft | 408 kts | 241° |
| 2026-05-06 07:07 | -36.37194 | 147.65234 | 34130 ft | 408 kts | 242° |
| 2026-05-06 07:08 | -36.40404 | 147.59406 | 34155 ft | 407 kts | 242° |
| 2026-05-06 07:08 | -36.43578 | 147.53634 | 34128 ft | 407 kts | 242° |
| 2026-05-06 07:09 | -36.46770 | 147.47818 | 34130 ft | 406 kts | 242° |
| 2026-05-06 07:09 | -36.49943 | 147.42025 | 34127 ft | 406 kts | 242° |
| 2026-05-06 07:10 | -36.53129 | 147.36203 | 34131 ft | 406 kts | 242° |
| 2026-05-06 07:10 | -36.56287 | 147.30400 | 34132 ft | 405 kts | 244° |
| 2026-05-06 07:10 | -36.57761 | 147.27383 | 33983 ft | 413 kts | 246° |
| 2026-05-06 07:11 | -36.59235 | 147.24226 | 33719 ft | 428 kts | 246° |
| 2026-05-06 07:11 | -36.60736 | 147.20985 | 33463 ft | 433 kts | 246° |
| 2026-05-06 07:11 | -36.62229 | 147.17760 | 33191 ft | 433 kts | 246° |
| 2026-05-06 07:11 | -36.63740 | 147.14492 | 32934 ft | 434 kts | 246° |
| 2026-05-06 07:12 | -36.65243 | 147.11235 | 32665 ft | 434 kts | 246° |
| 2026-05-06 07:12 | -36.66753 | 147.07957 | 32418 ft | 434 kts | 246° |
| 2026-05-06 07:12 | -36.68238 | 147.04732 | 32178 ft | 434 kts | 246° |
| 2026-05-06 07:12 | -36.69739 | 147.01464 | 31918 ft | 433 kts | 246° |
| 2026-05-06 07:13 | -36.71237 | 146.98209 | 31525 ft | 428 kts | 246° |
| 2026-05-06 07:13 | -36.72712 | 146.95001 | 31122 ft | 422 kts | 246° |
| 2026-05-06 07:13 | -36.74144 | 146.91878 | 30717 ft | 417 kts | 246° |
| 2026-05-06 07:13 | -36.75575 | 146.88747 | 30277 ft | 413 kts | 246° |
| 2026-05-06 07:14 | -36.76994 | 146.85643 | 29810 ft | 409 kts | 246° |
| 2026-05-06 07:14 | -36.78396 | 146.82572 | 29375 ft | 403 kts | 246° |
| 2026-05-06 07:14 | -36.79779 | 146.79542 | 28958 ft | 399 kts | 247° |
| 2026-05-06 07:14 | -36.81125 | 146.76584 | 28524 ft | 394 kts | 247° |
| 2026-05-06 07:15 | -36.82037 | 146.74583 | 28244 ft | 390 kts | 247° |
| 2026-05-06 07:15 | -36.83356 | 146.71687 | 27826 ft | 385 kts | 247° |
| 2026-05-06 07:15 | -36.84672 | 146.68795 | 27410 ft | 381 kts | 247° |
| 2026-05-06 07:15 | -36.85976 | 146.65927 | 27008 ft | 377 kts | 247° |
| 2026-05-06 07:16 | -36.87267 | 146.63085 | 26595 ft | 373 kts | 248° |
| 2026-05-06 07:16 | -36.88544 | 146.60265 | 26182 ft | 370 kts | 248° |
| 2026-05-06 07:16 | -36.89807 | 146.57479 | 25787 ft | 366 kts | 248° |
| 2026-05-06 07:16 | -36.91043 | 146.54750 | 25398 ft | 364 kts | 248° |
| 2026-05-06 07:17 | -36.92287 | 146.51999 | 24989 ft | 361 kts | 248° |
| 2026-05-06 07:17 | -36.93520 | 146.49273 | 24586 ft | 358 kts | 248° |
| 2026-05-06 07:17 | -36.94744 | 146.46564 | 24192 ft | 355 kts | 248° |
| 2026-05-06 07:17 | -36.95938 | 146.43917 | 23807 ft | 353 kts | 248° |
| 2026-05-06 07:18 | -36.97142 | 146.41246 | 23368 ft | 351 kts | 248° |
| 2026-05-06 07:18 | -36.98338 | 146.38592 | 22983 ft | 349 kts | 248° |
| 2026-05-06 07:18 | -36.99528 | 146.35948 | 22593 ft | 347 kts | 247° |
| 2026-05-06 07:18 | -37.00710 | 146.33321 | 22227 ft | 346 kts | 247° |
| 2026-05-06 07:19 | -37.01874 | 146.30731 | 21848 ft | 343 kts | 247° |
| 2026-05-06 07:19 | -37.03044 | 146.28128 | 21451 ft | 341 kts | 247° |
| 2026-05-06 07:19 | -37.04204 | 146.25542 | 21064 ft | 339 kts | 247° |
| 2026-05-06 07:19 | -37.05347 | 146.22993 | 20688 ft | 337 kts | 247° |
| 2026-05-06 07:20 | -37.06495 | 146.20433 | 20310 ft | 336 kts | 247° |
| 2026-05-06 07:20 | -37.07633 | 146.17891 | 19932 ft | 334 kts | 246° |
| 2026-05-06 07:20 | -37.08766 | 146.15359 | 19555 ft | 332 kts | 246° |
| 2026-05-06 07:20 | -37.09896 | 146.12833 | 19193 ft | 330 kts | 246° |
| 2026-05-06 07:21 | -37.11014 | 146.10330 | 18833 ft | 328 kts | 246° |
| 2026-05-06 07:21 | -37.12112 | 146.07869 | 18460 ft | 326 kts | 246° |
| 2026-05-06 07:21 | -37.13220 | 146.05387 | 18063 ft | 324 kts | 246° |
| 2026-05-06 07:21 | -37.14318 | 146.02927 | 17720 ft | 322 kts | 246° |
| 2026-05-06 07:22 | -37.15406 | 146.00486 | 17338 ft | 319 kts | 246° |
| 2026-05-06 07:22 | -37.16484 | 145.98064 | 16964 ft | 317 kts | 246° |
| 2026-05-06 07:22 | -37.17542 | 145.95684 | 16607 ft | 315 kts | 246° |
| 2026-05-06 07:22 | -37.18611 | 145.93279 | 16241 ft | 314 kts | 246° |
| 2026-05-06 07:23 | -37.19671 | 145.90892 | 15882 ft | 312 kts | 246° |
| 2026-05-06 07:23 | -37.20726 | 145.88515 | 15526 ft | 310 kts | 246° |
| 2026-05-06 07:23 | -37.21761 | 145.86185 | 15156 ft | 308 kts | 246° |
| 2026-05-06 07:23 | -37.22802 | 145.83834 | 14796 ft | 307 kts | 246° |
| 2026-05-06 07:24 | -37.23835 | 145.81498 | 14437 ft | 305 kts | 246° |
| 2026-05-06 07:24 | -37.24865 | 145.79168 | 14087 ft | 303 kts | 246° |
| 2026-05-06 07:24 | -37.25886 | 145.76859 | 13727 ft | 302 kts | 245° |
| 2026-05-06 07:24 | -37.26902 | 145.74560 | 13350 ft | 299 kts | 245° |
| 2026-05-06 07:25 | -37.27895 | 145.72312 | 13002 ft | 297 kts | 245° |
| 2026-05-06 07:25 | -37.28896 | 145.70046 | 12655 ft | 294 kts | 245° |
| 2026-05-06 07:25 | -37.29893 | 145.67802 | 12313 ft | 293 kts | 244° |
| 2026-05-06 07:25 | -37.30996 | 145.65681 | 11984 ft | 293 kts | 239° |
| 2026-05-06 07:26 | -37.32187 | 145.63598 | 11661 ft | 291 kts | 239° |
| 2026-05-06 07:26 | -37.33379 | 145.61543 | 11322 ft | 290 kts | 239° |
| 2026-05-06 07:26 | -37.34568 | 145.59498 | 10984 ft | 288 kts | 238° |
| 2026-05-06 07:26 | -37.35732 | 145.57488 | 10651 ft | 286 kts | 238° |
| 2026-05-06 07:27 | -37.36892 | 145.55484 | 10449 ft | 277 kts | 238° |
| 2026-05-06 07:27 | -37.38002 | 145.53569 | 10371 ft | 264 kts | 238° |
| 2026-05-06 07:27 | -37.39062 | 145.51735 | 10251 ft | 254 kts | 238° |
| 2026-05-06 07:27 | -37.40088 | 145.49957 | 10113 ft | 251 kts | 238° |
| 2026-05-06 07:28 | -37.41108 | 145.48043 | 9867 ft | 266 kts | 241° |
| 2026-05-06 07:28 | -37.42070 | 145.46113 | 9598 ft | 260 kts | 242° |
| 2026-05-06 07:28 | -37.43947 | 145.42270 | 9078 ft | 256 kts | 242° |
| 2026-05-06 07:29 | -37.44873 | 145.40351 | 8811 ft | 256 kts | 242° |
| 2026-05-06 07:29 | -37.45800 | 145.38434 | 8547 ft | 255 kts | 242° |
| 2026-05-06 07:29 | -37.46717 | 145.36528 | 8283 ft | 254 kts | 242° |
| 2026-05-06 07:29 | -37.47617 | 145.34651 | 8064 ft | 253 kts | 243° |
| 2026-05-06 07:30 | -37.48489 | 145.32728 | 7911 ft | 252 kts | 244° |
| 2026-05-06 07:30 | -37.49296 | 145.30768 | 7804 ft | 251 kts | 250° |
| 2026-05-06 07:30 | -37.49774 | 145.28690 | 7679 ft | 242 kts | 262° |
| 2026-05-06 07:30 | -37.50013 | 145.26604 | 7462 ft | 238 kts | 265° |
| 2026-05-06 07:31 | -37.50184 | 145.24566 | 7190 ft | 237 kts | 265° |
| 2026-05-06 07:31 | -37.50331 | 145.22488 | 6913 ft | 238 kts | 266° |
| 2026-05-06 07:31 | -37.50470 | 145.20414 | 6629 ft | 237 kts | 266° |
| 2026-05-06 07:31 | -37.50606 | 145.18344 | 6347 ft | 236 kts | 266° |
| 2026-05-06 07:32 | -37.50739 | 145.16305 | 6068 ft | 235 kts | 266° |
| 2026-05-06 07:32 | -37.50872 | 145.14249 | 5815 ft | 232 kts | 267° |
| 2026-05-06 07:32 | -37.50999 | 145.12277 | 5654 ft | 219 kts | 267° |
| 2026-05-06 07:32 | -37.51119 | 145.10412 | 5324 ft | 214 kts | 267° |
| 2026-05-06 07:33 | -37.51236 | 145.08565 | 5007 ft | 210 kts | 268° |
| 2026-05-06 07:33 | -37.51353 | 145.06724 | 4780 ft | 207 kts | 268° |
| 2026-05-06 07:33 | -37.51464 | 145.04965 | 4595 ft | 194 kts | 268° |
| 2026-05-06 07:33 | -37.51568 | 145.03335 | 4380 ft | 184 kts | 269° |
| 2026-05-06 07:34 | -37.51670 | 145.01743 | 4086 ft | 180 kts | 269° |
| 2026-05-06 07:34 | -37.51769 | 145.00174 | 3766 ft | 179 kts | 269° |
| 2026-05-06 07:34 | -37.51866 | 144.98620 | 3539 ft | 177 kts | 270° |
| 2026-05-06 07:34 | -37.51960 | 144.97099 | 3408 ft | 176 kts | 270° |
| 2026-05-06 07:35 | -37.52055 | 144.95553 | 3223 ft | 176 kts | 270° |
| 2026-05-06 07:35 | -37.52150 | 144.94014 | 3021 ft | 176 kts | 271° |
| 2026-05-06 07:35 | -37.52245 | 144.92470 | 2971 ft | 177 kts | 270° |
| 2026-05-06 07:35 | -37.52340 | 144.90945 | 2958 ft | 168 kts | 270° |
| 2026-05-06 07:36 | -37.52430 | 144.89576 | 2955 ft | 151 kts | 270° |
| 2026-05-06 07:36 | -37.52511 | 144.88282 | 2963 ft | 147 kts | 271° |
| 2026-05-06 07:36 | -37.52588 | 144.86995 | 2969 ft | 146 kts | 271° |
| 2026-05-06 07:36 | -37.52664 | 144.85710 | 2971 ft | 147 kts | 270° |
| 2026-05-06 07:37 | -37.52744 | 144.84416 | 2964 ft | 148 kts | 269° |
| 2026-05-06 07:37 | -37.52937 | 144.83127 | 2962 ft | 151 kts | 258° |
| 2026-05-06 07:37 | -37.53544 | 144.82032 | 2958 ft | 166 kts | 220° |
| 2026-05-06 07:37 | -37.54703 | 144.81649 | 2981 ft | 180 kts | 189° |
| 2026-05-06 07:38 | -37.55970 | 144.81843 | 2976 ft | 184 kts | 178° |
| 2026-05-06 07:38 | -37.57223 | 144.82125 | 2839 ft | 187 kts | 179° |
| 2026-05-06 07:38 | -37.58527 | 144.82378 | 2537 ft | 192 kts | 178° |
| 2026-05-06 07:38 | -37.59866 | 144.82641 | 2094 ft | 199 kts | 179° |
| 2026-05-06 07:39 | -37.61310 | 144.82787 | 1448 ft | 213 kts | 178° |
| 2026-05-06 07:39 | -37.62779 | 144.82972 | 953 ft | 216 kts | 172° |
| 2026-05-06 07:39 | -37.64252 | 144.83263 | 650 ft | 212 kts | 169° |
| 2026-05-06 07:39 | -37.65685 | 144.83559 | 420 ft | 205 kts | 169° |
| 2026-05-06 07:40 | -37.66785 | 144.83739 | 386 ft | 54 kts | 245° |
| 2026-05-06 07:40 | -37.66823 | 144.83757 | 386 ft | 0 kts | 247° |